Time;durP1;ratioP1;P1;durP2;ratioP2;P2;SDS_P1;SDS_P2;PMS_P1;PMS_P2;Temp;Humidity;BMP_temperature;BMP_pressure;BME280_temperature;BME280_humidity;BME280_pressure;Samples;Min_cycle;Max_cycle;Signal;HPM_P1;HPM_P2
2021/09/27 00:00:31;;;;;;;1683.90;840.47;;;18.80;99.90;;;;;;5002035;28;20471;-78
2021/09/27 00:03:00;;;;;;;1796.17;821.10;;;18.80;99.90;;;;;;5017708;28;20463;-78
2021/09/27 00:05:29;;;;;;;1662.47;861.80;;;18.80;99.90;;;;;;5039278;28;20477;-78
2021/09/27 00:07:57;;;;;;;1479.10;775.33;;;18.80;99.90;;;;;;5023498;28;20486;-78
2021/09/27 00:10:28;;;;;;;1907.83;933.93;;;18.70;99.90;;;;;;5019724;28;20527;-78
2021/09/27 00:12:57;;;;;;;1682.57;810.00;;;18.70;99.90;;;;;;5002084;28;20475;-78
2021/09/27 00:15:29;;;;;;;72.90;67.05;;;18.70;99.90;;;;;;5001369;28;20462;-78
2021/09/27 00:17:59;;;;;;;1035.33;659.57;;;18.70;99.90;;;;;;5019001;28;20212;-78
2021/09/27 00:20:28;;;;;;;1194.17;694.53;;;18.70;99.90;;;;;;4998209;28;20468;-78
2021/09/27 00:22:56;;;;;;;42.00;38.50;;;18.70;99.90;;;;;;4998524;28;20443;-78
2021/09/27 00:25:27;;;;;;;591.37;446.53;;;18.80;99.90;;;;;;5035291;28;20715;-78
2021/09/27 00:27:55;;;;;;;548.43;432.00;;;18.80;99.90;;;;;;5036271;28;20434;-78
2021/09/27 00:30:24;;;;;;;638.90;542.07;;;18.70;99.90;;;;;;5018757;28;20530;-78
2021/09/27 00:32:52;;;;;;;668.90;502.07;;;18.70;99.90;;;;;;5035954;28;20443;-78
2021/09/27 00:35:24;;;;;;;889.33;557.20;;;18.70;99.90;;;;;;5031645;28;20507;-78
2021/09/27 00:37:52;;;;;;;1049.43;651.43;;;18.70;99.90;;;;;;4998909;28;20813;-78
2021/09/27 00:40:25;;;;;;;836.10;588.47;;;18.70;99.90;;;;;;5002754;28;20982;-78
2021/09/27 00:42:54;;;;;;;650.37;514.63;;;18.70;99.90;;;;;;5016018;28;20507;-78
2021/09/27 00:45:25;;;;;;;40.72;37.30;;;18.70;99.90;;;;;;4997585;28;20443;-78
2021/09/27 00:47:54;;;;;;;424.87;298.90;;;18.70;99.90;;;;;;4998248;28;20636;-78
2021/09/27 00:50:26;;;;;;;521.73;394.77;;;18.70;99.90;;;;;;4998248;28;20452;-78
2021/09/27 00:52:55;;;;;;;624.07;472.07;;;18.70;99.90;;;;;;5016427;28;20523;-78
2021/09/27 00:55:25;;;;;;;767.33;620.70;;;18.70;99.90;;;;;;4998126;28;20475;-78
2021/09/27 00:57:55;;;;;;;746.50;544.03;;;18.60;99.90;;;;;;4998554;28;20457;-78
2021/09/27 01:00:26;;;;;;;771.00;531.57;;;18.60;99.90;;;;;;5015750;28;20478;-78
2021/09/27 01:02:54;;;;;;;809.80;587.50;;;18.60;99.90;;;;;;4998164;28;20476;-78
2021/09/27 01:05:25;;;;;;;1138.40;701.43;;;18.60;99.90;;;;;;5020192;28;20953;-78
2021/09/27 01:08:02;;;;;;;860.97;582.67;;;18.60;99.90;;;;;;5018856;28;20542;-78
2021/09/27 01:10:54;;;;;;;1245.33;755.87;;;18.60;99.90;;;;;;5017590;28;20439;-78
2021/09/27 01:13:47;;;;;;;1339.43;752.93;;;18.60;99.90;;;;;;5018528;28;20798;-78
2021/09/27 01:16:22;;;;;;;35.40;32.50;;;18.60;99.90;;;;;;5004220;28;20456;-78
2021/09/27 01:19:04;;;;;;;623.23;417.20;;;18.70;99.90;;;;;;5015142;28;20939;-78
2021/09/27 01:21:48;;;;;;;33.72;30.90;;;18.70;99.90;;;;;;4999896;28;20494;-79
2021/09/27 01:24:47;;;;;;;690.27;453.87;;;18.70;99.90;;;;;;5009940;28;20291;-78
2021/09/27 01:27:43;;;;;;;793.87;574.10;;;18.70;99.90;;;;;;5007056;28;20469;-78
2021/09/27 01:30:42;;;;;;;596.03;457.47;;;18.60;99.90;;;;;;5034166;28;20519;-78
2021/09/27 01:33:17;;;;;;;882.70;588.00;;;18.60;99.90;;;;;;5029538;28;20439;-78
2021/09/27 01:35:54;;;;;;;830.77;581.00;;;18.60;99.90;;;;;;4997632;28;20510;-78
2021/09/27 01:38:31;;;;;;;817.07;570.37;;;18.50;99.90;;;;;;4997492;28;20440;-77
2021/09/27 01:41:13;;;;;;;1076.17;680.03;;;18.50;99.90;;;;;;5014930;28;20582;-78
2021/09/27 01:43:47;;;;;;;1253.93;684.97;;;18.50;99.90;;;;;;4997377;28;20514;-78
2021/09/27 01:46:29;;;;;;;1190.30;718.73;;;18.50;99.90;;;;;;5015670;28;20558;-78
2021/09/27 01:49:05;;;;;;;1351.03;775.13;;;18.50;99.90;;;;;;4990354;28;20546;-78
2021/09/27 01:51:40;;;;;;;28.77;26.38;;;18.50;99.90;;;;;;5014866;28;20854;-78
2021/09/27 01:54:14;;;;;;;701.93;474.23;;;18.50;99.90;;;;;;5035366;28;20645;-78
2021/09/27 01:56:56;;;;;;;735.80;471.80;;;18.50;99.90;;;;;;5017520;28;20506;-78
2021/09/27 01:59:32;;;;;;;986.10;659.10;;;18.50;99.90;;;;;;5016634;28;20550;-78
2021/09/27 02:02:06;;;;;;;963.77;589.77;;;18.50;99.90;;;;;;5017231;28;20471;-78
2021/09/27 02:04:44;;;;;;;1036.00;617.47;;;18.50;99.90;;;;;;5003928;28;20460;-78
2021/09/27 02:07:15;;;;;;;1120.67;706.97;;;18.40;99.90;;;;;;4997271;28;20450;-78
2021/09/27 02:09:54;;;;;;;752.67;501.60;;;18.40;99.90;;;;;;4996891;28;20590;-78
2021/09/27 02:12:26;;;;;;;880.93;563.33;;;18.40;99.90;;;;;;5029357;28;20933;-78
2021/09/27 02:14:59;;;;;;;27.73;25.42;;;18.40;99.90;;;;;;5015489;28;20457;-78
2021/09/27 02:17:37;;;;;;;530.23;321.63;;;18.40;99.90;;;;;;5016691;28;20254;-78
2021/09/27 02:20:13;;;;;;;34.80;32.00;;;18.50;99.90;;;;;;5016075;28;20453;-78
2021/09/27 02:22:46;;;;;;;698.63;470.67;;;18.50;99.90;;;;;;5016877;28;20889;-78
2021/09/27 02:25:32;;;;;;;880.20;584.90;;;18.40;99.90;;;;;;5034405;28;20550;-78
2021/09/27 02:28:03;;;;;;;1258.13;681.67;;;18.40;99.90;;;;;;5034598;28;20427;-78
2021/09/27 02:30:41;;;;;;;1220.87;684.23;;;18.40;99.90;;;;;;5016424;28;20463;-78
2021/09/27 02:33:20;;;;;;;1354.83;728.80;;;18.40;99.90;;;;;;5012913;28;20509;-78
2021/09/27 02:35:54;;;;;;;1304.90;747.23;;;18.30;99.90;;;;;;5019746;28;20569;-78
2021/09/27 02:38:27;;;;;;;1431.40;766.30;;;18.30;99.90;;;;;;5033909;28;20414;-78
2021/09/27 02:41:01;;;;;;;1175.63;683.33;;;18.30;99.90;;;;;;5015820;28;20451;-78
2021/09/27 02:43:29;;;;;;;46.60;42.92;;;18.30;99.90;;;;;;5015419;28;21004;-78
2021/09/27 02:45:58;;;;;;;892.37;572.90;;;18.30;99.90;;;;;;5033839;28;20703;-78
2021/09/27 02:48:33;;;;;;;856.60;584.00;;;18.30;99.90;;;;;;5016042;28;20443;-78
2021/09/27 02:51:04;;;;;;;24.50;22.30;;;18.30;99.90;;;;;;5032696;28;20536;-78
2021/09/27 02:53:33;;;;;;;646.10;433.17;;;18.30;99.90;;;;;;5016086;28;20194;-78
2021/09/27 02:56:23;;;;;;;630.70;415.50;;;18.30;99.90;;;;;;5015772;28;20479;-78
2021/09/27 02:59:07;;;;;;;760.00;488.80;;;18.30;99.90;;;;;;5033793;28;20458;-78
2021/09/27 03:01:39;;;;;;;1010.77;610.40;;;18.30;99.90;;;;;;5031538;28;20884;-78
2021/09/27 03:04:12;;;;;;;1235.67;756.27;;;18.20;99.90;;;;;;5015843;28;20465;-78
2021/09/27 03:06:58;;;;;;;1102.17;665.70;;;18.20;99.90;;;;;;5034147;28;20470;-78
2021/09/27 03:09:34;;;;;;;1173.47;696.07;;;18.20;99.90;;;;;;5015917;28;20485;-78
2021/09/27 03:12:12;;;;;;;1328.50;719.13;;;18.20;99.90;;;;;;5033309;28;20517;-78
2021/09/27 03:14:56;;;;;;;26.50;24.20;;;18.10;99.90;;;;;;5032096;28;21004;-78
2021/09/27 03:17:34;;;;;;;534.30;306.17;;;18.20;99.90;;;;;;5015428;28;20462;-78
2021/09/27 03:20:20;;;;;;;25.55;23.35;;;18.20;99.90;;;;;;5014567;28;20457;-78
2021/09/27 03:22:58;;;;;;;402.20;287.10;;;18.20;99.90;;;;;;5033662;28;20636;-78
2021/09/27 03:25:41;;;;;;;588.27;416.73;;;18.20;99.90;;;;;;5015402;28;20475;-79
2021/09/27 03:28:17;;;;;;;525.30;390.77;;;18.20;99.90;;;;;;5015485;28;20446;-79
2021/09/27 03:30:57;;;;;;;668.60;474.40;;;18.10;99.90;;;;;;5015513;28;20942;-78
2021/09/27 03:33:36;;;;;;;655.80;457.47;;;18.10;99.90;;;;;;5015942;28;20441;-78
2021/09/27 03:36:23;;;;;;;808.63;506.17;;;18.10;99.90;;;;;;4986273;28;20849;-78
2021/09/27 03:39:05;;;;;;;751.90;511.10;;;18.10;99.90;;;;;;5014331;28;20395;-78
2021/09/27 03:41:41;;;;;;;830.20;495.90;;;18.10;99.90;;;;;;4996636;28;20565;-78
2021/09/27 03:44:20;;;;;;;824.60;507.67;;;18.00;99.90;;;;;;4992565;28;20471;-78
2021/09/27 03:46:56;;;;;;;165.48;148.73;;;18.00;99.90;;;;;;4976405;28;20452;-78
2021/09/27 03:49:32;;;;;;;603.83;411.53;;;18.00;99.90;;;;;;4976547;28;20185;-78
2021/09/27 03:52:05;;;;;;;619.80;396.80;;;18.00;99.90;;;;;;4992843;28;20523;-78
2021/09/27 03:54:40;;;;;;;41.40;37.50;;;18.00;99.90;;;;;;5008352;28;20450;-78
2021/09/27 03:57:14;;;;;;;403.37;232.30;;;18.10;99.90;;;;;;4999885;28;20655;-78
2021/09/27 03:59:45;;;;;;;350.97;267.40;;;18.10;99.90;;;;;;5017276;28;20482;-77
2021/09/27 04:02:21;;;;;;;386.87;289.27;;;18.10;99.90;;;;;;5019630;28;20559;-79
2021/09/27 04:05:00;;;;;;;594.53;395.97;;;18.10;99.90;;;;;;5018967;28;20497;-79
2021/09/27 04:07:41;;;;;;;918.20;568.30;;;18.00;99.90;;;;;;5018819;28;20486;-78
2021/09/27 04:10:19;;;;;;;831.20;518.90;;;18.00;99.90;;;;;;5037089;28;20522;-78
2021/09/27 04:13:10;;;;;;;913.37;574.03;;;18.00;99.90;;;;;;5036757;28;20489;-79
2021/09/27 04:16:01;;;;;;;894.60;545.93;;;18.00;99.90;;;;;;5021224;28;20595;-79
2021/09/27 04:18:42;;;;;;;32.20;29.20;;;18.00;99.90;;;;;;5012096;28;20542;-78
2021/09/27 04:21:18;;;;;;;407.90;233.63;;;18.00;99.90;;;;;;5009613;28;20220;-78
2021/09/27 04:24:01;;;;;;;38.30;34.50;;;18.00;99.90;;;;;;5018706;28;20536;-78
2021/09/27 04:26:48;;;;;;;316.53;212.10;;;18.00;99.90;;;;;;5020025;28;20707;-78
2021/09/27 04:29:38;;;;;;;710.20;470.27;;;18.00;99.90;;;;;;5007446;28;20464;-79
2021/09/27 04:32:14;;;;;;;831.23;528.37;;;18.00;99.90;;;;;;5000008;28;20845;-79
2021/09/27 04:34:54;;;;;;;732.13;495.70;;;17.90;99.90;;;;;;4998508;28;20445;-78
2021/09/27 04:37:23;;;;;;;716.53;462.97;;;17.90;99.90;;;;;;5008746;28;20536;-78
2021/09/27 04:39:52;;;;;;;790.17;508.90;;;17.90;99.90;;;;;;5009840;28;20448;-78
2021/09/27 04:42:40;;;;;;;625.40;456.73;;;17.90;99.90;;;;;;5017686;28;20495;-79
2021/09/27 04:45:32;;;;;;;921.90;524.50;;;17.80;99.90;;;;;;5017694;28;20494;-78
2021/09/27 04:48:13;;;;;;;32.72;29.52;;;17.80;99.90;;;;;;4999122;28;20542;-78
2021/09/27 04:50:52;;;;;;;453.70;283.30;;;17.80;99.90;;;;;;4999801;28;20281;-78
2021/09/27 04:53:35;;;;;;;41.90;38.20;;;17.80;99.90;;;;;;5017208;28;20426;-79
2021/09/27 04:56:20;;;;;;;415.67;251.63;;;17.80;99.90;;;;;;5000470;28;20224;-78
2021/09/27 04:58:58;;;;;;;438.07;321.53;;;17.80;99.90;;;;;;5017693;28;20432;-79
2021/09/27 05:01:39;;;;;;;542.43;392.17;;;17.80;99.90;;;;;;5000242;28;20903;-79
2021/09/27 05:04:24;;;;;;;958.50;573.67;;;17.80;99.90;;;;;;5009353;28;20426;-78
2021/09/27 05:07:25;;;;;;;623.00;412.50;;;17.70;99.90;;;;;;5012581;28;20485;-79
2021/09/27 05:10:05;;;;;;;911.47;544.17;;;17.70;99.90;;;;;;5037511;28;20417;-79
2021/09/27 05:12:48;;;;;;;980.30;551.70;;;17.70;99.90;;;;;;5038168;28;20474;-79
2021/09/27 05:15:44;;;;;;;604.87;381.37;;;17.70;99.90;;;;;;5019314;28;20840;-78
2021/09/27 05:18:54;;;;;;;34.10;30.60;;;17.70;99.90;;;;;;5017970;28;20539;-78
2021/09/27 05:21:52;;;;;;;411.40;248.67;;;17.80;99.90;;;;;;5016251;28;20216;-78
2021/09/27 05:24:47;;;;;;;34.25;30.95;;;17.70;99.90;;;;;;5015251;28;20464;-78
2021/09/27 05:27:41;;;;;;;289.00;199.13;;;17.80;99.90;;;;;;5037354;28;20553;-79
2021/09/27 05:30:21;;;;;;;307.63;230.03;;;17.80;99.90;;;;;;5019407;28;20455;-79
2021/09/27 05:33:00;;;;;;;313.17;253.43;;;17.70;99.90;;;;;;5019019;28;21012;-79
2021/09/27 05:35:59;;;;;;;277.83;218.63;;;17.70;99.90;;;;;;5019630;28;20466;-78
2021/09/27 05:38:34;;;;;;;410.40;309.20;;;17.70;99.90;;;;;;5019843;28;20442;-79
2021/09/27 05:41:10;;;;;;;673.97;420.70;;;17.70;99.90;;;;;;5019519;28;20442;-79
2021/09/27 05:43:51;;;;;;;650.20;449.93;;;17.70;99.90;;;;;;5019197;28;20849;-79
2021/09/27 05:46:41;;;;;;;603.83;440.33;;;17.70;99.90;;;;;;5037024;28;20467;-78
2021/09/27 05:49:16;;;;;;;36.30;33.00;;;17.70;99.90;;;;;;5015905;28;20532;-79
2021/09/27 05:51:50;;;;;;;273.43;180.13;;;17.80;99.90;;;;;;5037026;28;20476;-79
2021/09/27 05:54:29;;;;;;;182.80;155.20;;;17.80;99.90;;;;;;5018900;28;20439;-79
2021/09/27 05:57:07;;;;;;;183.43;144.63;;;17.70;99.90;;;;;;5018921;28;20467;-78
2021/09/27 05:59:45;;;;;;;301.17;231.83;;;17.70;99.90;;;;;;5018743;28;21013;-79
2021/09/27 06:02:30;;;;;;;400.63;309.90;;;17.70;99.90;;;;;;5019080;28;20463;-79
2021/09/27 06:05:11;;;;;;;290.63;234.87;;;17.70;99.90;;;;;;5019435;28;20450;-79
2021/09/27 06:07:48;;;;;;;357.73;285.17;;;17.70;99.90;;;;;;5019641;28;20501;-79
2021/09/27 06:10:26;;;;;;;496.43;326.57;;;17.70;99.90;;;;;;5019794;28;20435;-79
2021/09/27 06:13:05;;;;;;;391.40;286.53;;;17.70;99.90;;;;;;5037435;28;20528;-79
2021/09/27 06:15:42;;;;;;;445.77;322.80;;;17.70;99.90;;;;;;5037013;28;20455;-79
2021/09/27 06:18:25;;;;;;;35.92;32.47;;;17.70;99.90;;;;;;5017828;28;20462;-79
2021/09/27 06:21:06;;;;;;;228.03;162.93;;;17.80;99.90;;;;;;5018429;28;20620;-78
2021/09/27 06:24:00;;;;;;;44.45;39.85;;;17.80;99.90;;;;;;5005555;28;20959;-79
2021/09/27 06:26:33;;;;;;;376.43;268.30;;;17.80;99.90;;;;;;5016675;28;20216;-78
2021/09/27 06:29:08;;;;;;;268.93;201.30;;;17.80;99.90;;;;;;5035964;28;20447;-79
2021/09/27 06:31:44;;;;;;;300.03;236.70;;;17.80;99.90;;;;;;5019027;28;20892;-79
2021/09/27 06:34:17;;;;;;;430.53;311.73;;;17.80;99.90;;;;;;5018866;28;20516;-79
2021/09/27 06:36:47;;;;;;;410.67;312.17;;;17.80;99.90;;;;;;5018505;28;20474;-79
2021/09/27 06:39:22;;;;;;;469.33;323.80;;;17.80;99.90;;;;;;5018632;28;20422;-79
2021/09/27 06:41:52;;;;;;;680.50;445.30;;;17.70;99.90;;;;;;5019091;28;20483;-79
2021/09/27 06:44:21;;;;;;;440.33;339.33;;;17.70;99.90;;;;;;5019250;28;20792;-79
2021/09/27 06:46:50;;;;;;;492.17;329.50;;;17.70;99.90;;;;;;5018458;28;20471;-78
2021/09/27 06:49:18;;;;;;;37.92;34.22;;;17.70;99.90;;;;;;5017146;28;20453;-79
2021/09/27 06:51:48;;;;;;;339.33;236.23;;;17.90;99.90;;;;;;5036302;28;20216;-79
2021/09/27 06:54:19;;;;;;;51.72;46.63;;;17.90;99.90;;;;;;5036063;28;20452;-79
2021/09/27 06:56:48;;;;;;;455.90;295.03;;;17.90;99.90;;;;;;5017972;28;20228;-79
2021/09/27 06:59:20;;;;;;;701.27;391.97;;;17.90;99.90;;;;;;5018328;28;20623;-79
2021/09/27 07:01:48;;;;;;;1069.03;544.83;;;17.90;99.90;;;;;;5018118;28;20451;-79
2021/09/27 07:04:17;;;;;;;1201.37;582.53;;;17.90;99.90;;;;;;5018450;28;20454;-79
2021/09/27 07:06:46;;;;;;;1095.67;592.93;;;17.90;99.90;;;;;;5018309;28;20475;-79
2021/09/27 07:09:16;;;;;;;875.97;513.67;;;17.90;99.90;;;;;;5018199;28;20467;-79
2021/09/27 07:11:44;;;;;;;1526.83;699.77;;;17.90;99.90;;;;;;5017984;28;20459;-79
2021/09/27 07:14:12;;;;;;;1347.00;666.63;;;18.00;99.90;;;;;;5018190;28;20542;-79
2021/09/27 07:16:41;;;;;;;1711.63;759.13;;;18.00;99.90;;;;;;5018110;28;20475;-79
2021/09/27 07:19:11;;;;;;;43.15;38.92;;;18.00;99.90;;;;;;5017750;28;20457;-78
2021/09/27 07:21:42;;;;;;;962.30;442.23;;;18.10;99.90;;;;;;5018663;28;20223;-79
2021/09/27 07:24:12;;;;;;;1673.27;700.40;;;18.10;99.90;;;;;;5035862;28;20859;-78
2021/09/27 07:26:42;;;;;;;1547.03;706.40;;;18.10;99.90;;;;;;5018440;28;20986;-79
2021/09/27 07:29:10;;;;;;;1772.33;820.13;;;18.10;99.90;;;;;;5038269;28;20451;-76
2021/09/27 07:31:38;;;;;;;1999.50;859.67;;;18.10;99.90;;;;;;5019454;28;20449;-76
2021/09/27 07:34:08;;;;;;;1922.10;856.33;;;18.10;99.90;;;;;;5019666;28;20451;-77
2021/09/27 07:36:36;;;;;;;1864.13;874.20;;;18.20;99.90;;;;;;5019417;28;20480;-76
2021/09/27 07:39:05;;;;;;;1994.53;920.10;;;18.20;99.90;;;;;;5037709;28;20466;-76
2021/09/27 07:41:34;;;;;;;1999.90;988.57;;;18.20;99.90;;;;;;5020142;28;20457;-76
2021/09/27 07:44:04;;;;;;;1999.90;966.70;;;18.30;99.90;;;;;;5037517;28;20470;-76
2021/09/27 07:46:33;;;;;;;1999.90;999.90;;;18.30;99.90;;;;;;5019753;28;20503;-75
2021/09/27 07:49:01;;;;;;;1999.90;978.53;;;18.30;99.90;;;;;;5019630;28;20471;-76
2021/09/27 07:51:30;;;;;;;1999.90;991.57;;;18.40;99.90;;;;;;5038128;28;20440;-76
2021/09/27 07:53:58;;;;;;;1999.90;999.90;;;18.40;99.90;;;;;;5019525;28;20451;-76
2021/09/27 07:56:26;;;;;;;1999.90;999.90;;;18.50;99.90;;;;;;5037095;28;20973;-75
2021/09/27 07:58:54;;;;;;;1999.90;999.90;;;18.60;99.90;;;;;;5019428;28;20836;-76
2021/09/27 08:01:24;;;;;;;38.53;34.83;;;18.70;99.90;;;;;;5018906;28;20445;-76
2021/09/27 08:03:52;;;;;;;1999.90;999.70;;;18.90;99.90;;;;;;5019475;28;20474;-76
2021/09/27 08:06:21;;;;;;;1999.90;999.90;;;19.00;99.90;;;;;;5019674;28;20510;-76
2021/09/27 08:08:49;;;;;;;1999.90;999.90;;;19.10;99.90;;;;;;5019454;28;20463;-76
2021/09/27 08:11:17;;;;;;;1999.90;938.80;;;19.20;99.90;;;;;;5037309;28;20521;-76
2021/09/27 08:13:46;;;;;;;1999.90;634.60;;;19.30;99.90;;;;;;5019390;28;20569;-76
2021/09/27 08:16:15;;;;;;;1999.90;548.87;;;19.50;99.90;;;;;;5019159;28;20894;-76
2021/09/27 08:18:44;;;;;;;1999.90;376.77;;;19.50;99.90;;;;;;5019569;28;20466;-76
2021/09/27 08:21:16;;;;;;;1999.90;331.33;;;19.70;99.90;;;;;;5019233;28;20528;-76
2021/09/27 08:23:48;;;;;;;1999.90;816.83;;;19.80;99.90;;;;;;5019958;28;20568;-76
2021/09/27 08:26:16;;;;;;;1999.90;999.90;;;19.90;99.90;;;;;;5018430;28;20867;-78
2021/09/27 08:28:47;;;;;;;1999.90;999.90;;;20.10;99.90;;;;;;5020581;28;20719;-79
2021/09/27 08:31:19;;;;;;;1999.90;999.90;;;20.10;99.90;;;;;;5037692;28;20469;-77
2021/09/27 08:33:52;;;;;;;1999.90;999.90;;;20.20;99.90;;;;;;5018932;28;20447;-76
2021/09/27 08:36:24;;;;;;;1999.90;999.90;;;20.30;99.90;;;;;;5019419;28;20910;-77
2021/09/27 08:38:53;;;;;;;1999.90;999.90;;;20.30;99.90;;;;;;5020347;28;20825;-77
2021/09/27 08:41:26;;;;;;;1999.90;999.90;;;20.30;99.90;;;;;;5017448;28;20517;-77
2021/09/27 08:44:23;;;;;;;1999.90;999.90;;;20.30;99.90;;;;;;5035736;28;20513;-77
2021/09/27 08:46:55;;;;;;;1999.90;999.90;;;20.30;99.90;;;;;;5018053;28;20993;-77
2021/09/27 08:49:37;;;;;;;1999.90;999.90;;;20.40;99.90;;;;;;5018016;28;20485;-77
2021/09/27 08:52:07;;;;;;;1999.90;999.90;;;20.50;99.90;;;;;;5017836;28;20492;-78
2021/09/27 08:54:37;;;;;;;1999.90;999.90;;;20.50;99.90;;;;;;5017813;28;20433;-78
2021/09/27 08:57:10;;;;;;;1999.90;999.90;;;20.50;99.90;;;;;;5035315;28;20251;-77
2021/09/27 08:59:50;;;;;;;1999.90;999.90;;;20.60;99.90;;;;;;5017911;28;20458;-77
2021/09/27 09:02:31;;;;;;;1999.90;922.33;;;20.60;99.90;;;;;;5016640;28;20507;-77
2021/09/27 09:05:11;;;;;;;1999.90;999.90;;;20.70;99.90;;;;;;5017537;28;20212;-77
2021/09/27 09:07:46;;;;;;;1999.90;999.90;;;20.80;99.90;;;;;;5017557;28;20493;-77
2021/09/27 09:10:20;;;;;;;1999.90;999.90;;;20.80;99.90;;;;;;5035587;28;20837;-77
2021/09/27 09:12:54;;;;;;;1999.90;758.10;;;20.80;99.90;;;;;;5017496;28;20898;-77
2021/09/27 09:15:25;;;;;;;1999.90;827.57;;;20.90;99.90;;;;;;5035430;28;20462;-77
2021/09/27 09:18:01;;;;;;;1999.90;999.90;;;21.00;99.90;;;;;;5035452;28;20457;-77
2021/09/27 09:20:42;;;;;;;1999.90;610.93;;;21.00;99.90;;;;;;5017794;28;20447;-77
2021/09/27 09:23:18;;;;;;;1999.90;999.90;;;21.10;99.90;;;;;;5017230;28;20451;-77
2021/09/27 09:25:46;;;;;;;1999.90;786.27;;;21.10;99.90;;;;;;5017135;28;20466;-77
2021/09/27 09:28:15;;;;;;;1999.90;872.93;;;21.10;99.90;;;;;;5017444;28;20550;-77
2021/09/27 09:30:46;;;;;;;1999.90;742.80;;;21.20;99.90;;;;;;5017124;28;20542;-77
2021/09/27 09:33:37;;;;;;;1999.90;830.17;;;21.20;99.90;;;;;;5016949;28;20523;-77
2021/09/27 09:36:08;;;;;;;1999.90;999.90;;;21.30;99.90;;;;;;5016270;28;20496;-76
2021/09/27 09:38:38;;;;;;;1999.90;782.30;;;21.40;99.90;;;;;;5017108;28;20295;-77
2021/09/27 09:41:08;;;;;;;1999.90;784.63;;;21.40;99.90;;;;;;5034806;28;20918;-77
2021/09/27 09:43:39;;;;;;;1999.90;823.67;;;21.50;99.90;;;;;;5016842;28;20562;-76
2021/09/27 09:46:12;;;;;;;1999.90;941.63;;;21.50;99.90;;;;;;5016687;28;20474;-76
2021/09/27 09:49:00;;;;;;;1999.90;716.67;;;21.60;99.90;;;;;;5016875;28;20446;-77
2021/09/27 09:51:37;;;;;;;1834.27;499.80;;;21.60;99.90;;;;;;5016076;28;20487;-76
2021/09/27 09:54:12;;;;;;;1337.30;429.97;;;21.60;99.90;;;;;;5016787;28;20474;-76
2021/09/27 09:56:47;;;;;;;1544.27;438.50;;;21.60;99.90;;;;;;5016801;28;20577;-76
2021/09/27 09:59:23;;;;;;;1999.90;999.90;;;21.60;99.90;;;;;;5033939;28;20962;-76
2021/09/27 10:01:55;;;;;;;583.70;291.20;;;21.60;99.90;;;;;;5016553;28;20187;-76
2021/09/27 10:04:27;;;;;;;1999.90;851.45;;;21.60;99.90;;;;;;5016308;28;20521;-77
2021/09/27 10:07:11;;;;;;;1844.17;484.97;;;21.70;99.90;;;;;;5016302;28;20319;-77
2021/09/27 10:09:46;;;;;;;787.40;330.27;;;21.70;99.90;;;;;;5016972;28;20443;-77
2021/09/27 10:12:41;;;;;;;1528.30;458.93;;;21.70;99.90;;;;;;5016386;28;20449;-77
2021/09/27 10:15:15;;;;;;;269.30;110.20;;;21.70;99.90;;;;;;5016665;28;20831;-77
2021/09/27 10:17:43;;;;;;;1692.03;450.67;;;21.60;99.90;;;;;;5034236;28;20549;-77
2021/09/27 10:20:17;;;;;;;1969.63;593.33;;;21.60;99.90;;;;;;5034172;28;20435;-77
2021/09/27 10:22:54;;;;;;;1869.53;544.00;;;21.60;99.90;;;;;;5016241;28;20481;-77
2021/09/27 10:25:30;;;;;;;1818.47;539.47;;;21.60;99.90;;;;;;5033940;28;20475;-77
2021/09/27 10:28:01;;;;;;;1999.90;999.90;;;21.50;99.90;;;;;;5015854;28;20446;-76
2021/09/27 10:30:38;;;;;;;1999.90;859.50;;;21.60;99.90;;;;;;5016134;28;20621;-77
2021/09/27 10:33:16;;;;;;;1999.90;660.27;;;21.50;99.90;;;;;;5017287;28;20504;-77
2021/09/27 10:35:52;;;;;;;1937.00;584.83;;;21.50;99.90;;;;;;5033887;28;20470;-77
2021/09/27 10:38:28;;;;;;;1999.90;653.40;;;21.50;99.90;;;;;;5015889;28;20938;-77
2021/09/27 10:41:02;;;;;;;1999.90;696.87;;;21.40;99.90;;;;;;5015855;28;20530;-77
2021/09/27 10:43:31;;;;;;;1999.90;742.17;;;21.40;99.90;;;;;;5015741;28;20450;-77
2021/09/27 10:46:02;;;;;;;1999.90;697.70;;;21.40;99.90;;;;;;5015683;28;21076;-77
2021/09/27 10:48:31;;;;;;;1952.43;585.10;;;21.50;99.90;;;;;;5033353;28;20435;-77
2021/09/27 10:51:03;;;;;;;1949.53;602.73;;;21.50;99.90;;;;;;5015785;28;20450;-77
2021/09/27 10:53:38;;;;;;;1945.30;588.47;;;21.60;99.90;;;;;;5015830;28;20442;-77
2021/09/27 10:56:17;;;;;;;1999.90;617.60;;;21.70;99.90;;;;;;5016767;28;20466;-77
2021/09/27 10:58:52;;;;;;;1525.07;472.77;;;21.70;99.90;;;;;;5033695;28;20435;-77
2021/09/27 11:01:42;;;;;;;1982.77;647.33;;;21.80;99.90;;;;;;5015648;28;20453;-77
2021/09/27 11:04:15;;;;;;;1999.90;999.90;;;21.90;99.90;;;;;;5014571;28;21067;-77
2021/09/27 11:06:49;;;;;;;1269.57;392.83;;;22.00;99.90;;;;;;5015485;28;20274;-76
2021/09/27 11:09:30;;;;;;;63.03;54.73;;;22.10;99.90;;;;;;5016349;28;20474;-77
2021/09/27 11:12:03;;;;;;;1914.30;562.97;;;22.10;99.90;;;;;;5033504;28;20430;-77
2021/09/27 11:14:47;;;;;;;863.97;367.23;;;22.20;99.90;;;;;;5033164;28;20420;-77
2021/09/27 11:17:36;;;;;;;137.30;96.53;;;22.20;99.90;;;;;;5015344;28;20556;-77
2021/09/27 11:20:39;;;;;;;64.07;54.63;;;22.20;99.90;;;;;;5013700;28;20451;-77
2021/09/27 11:23:27;;;;;;;47.00;37.40;;;22.20;99.90;;;;;;5013512;28;20447;-77
2021/09/27 11:26:32;;;;;;;1999.90;845.70;;;22.20;99.90;;;;;;5032356;28;20470;-77
2021/09/27 11:29:27;;;;;;;16.77;15.03;;;22.20;99.90;;;;;;5015360;28;20203;-77
2021/09/27 11:32:26;;;;;;;1999.90;999.90;;;22.10;99.90;;;;;;5009221;28;20503;-77
2021/09/27 11:34:57;;;;;;;771.00;271.33;;;22.10;99.90;;;;;;5015324;28;20823;-76
2021/09/27 11:37:30;;;;;;;155.53;94.83;;;22.10;99.90;;;;;;5014959;28;20526;-77
2021/09/27 11:40:26;;;;;;;100.23;54.10;;;22.10;99.90;;;;;;5015367;28;20471;-76
2021/09/27 11:43:08;;;;;;;29.00;26.87;;;22.10;99.90;;;;;;5015301;28;20471;-77
2021/09/27 11:45:48;;;;;;;17.23;15.93;;;22.10;99.90;;;;;;5015201;28;20483;-77
2021/09/27 11:48:42;;;;;;;32.70;29.70;;;22.10;99.90;;;;;;5033270;28;20445;-77
2021/09/27 11:51:28;;;;;;;34.67;25.33;;;22.10;99.90;;;;;;5015451;28;20513;-77
2021/09/27 11:54:19;;;;;;;227.33;93.43;;;22.10;99.90;;;;;;5015508;28;21008;-77
2021/09/27 11:56:58;;;;;;;412.17;149.43;;;22.10;99.90;;;;;;5015282;28;20521;-77
2021/09/27 11:59:35;;;;;;;1999.90;999.90;;;22.20;99.90;;;;;;5014269;28;20925;-77
2021/09/27 12:02:17;;;;;;;79.60;72.80;;;22.30;99.90;;;;;;5016047;28;20185;-76
2021/09/27 12:05:00;;;;;;;1999.90;999.90;;;22.40;99.90;;;;;;5014688;28;20445;-77
2021/09/27 12:07:38;;;;;;;332.70;197.57;;;22.40;99.90;;;;;;5015211;28;20181;-77
2021/09/27 12:10:09;;;;;;;190.47;106.83;;;22.50;99.90;;;;;;5015062;28;20819;-77
2021/09/27 12:12:41;;;;;;;23.70;21.90;;;22.50;99.90;;;;;;5014999;28;20431;-77
2021/09/27 12:15:13;;;;;;;44.40;39.77;;;22.50;99.90;;;;;;5016245;28;20475;-77
2021/09/27 12:17:43;;;;;;;14.00;12.87;;;22.60;99.90;;;;;;5018398;28;21036;-77
2021/09/27 12:20:14;;;;;;;14.10;12.93;;;22.60;99.90;;;;;;5018390;28;20454;-77
2021/09/27 12:22:47;;;;;;;13.80;12.60;;;22.60;99.90;;;;;;5018446;28;20446;-77
2021/09/27 12:25:21;;;;;;;35.27;28.47;;;22.70;99.90;;;;;;5036240;28;20479;-77
2021/09/27 12:27:54;;;;;;;1999.90;882.65;;;22.60;99.90;;;;;;5017241;28;21006;-77
2021/09/27 12:30:27;;;;;;;13.67;12.37;;;22.70;99.90;;;;;;5018311;28;20247;-77
2021/09/27 12:33:00;;;;;;;809.35;349.30;;;22.70;99.90;;;;;;5035980;28;20453;-77
2021/09/27 12:35:33;;;;;;;30.53;27.70;;;22.70;99.90;;;;;;5018235;28;20219;-77
2021/09/27 12:38:02;;;;;;;13.77;12.63;;;22.60;99.90;;;;;;5018070;28;21062;-77
2021/09/27 12:40:33;;;;;;;31.23;28.57;;;22.60;99.90;;;;;;5036239;28;20509;-77
2021/09/27 12:43:08;;;;;;;15.50;14.40;;;22.60;99.90;;;;;;5018168;28;20451;-77
2021/09/27 12:45:41;;;;;;;13.10;11.90;;;22.60;99.90;;;;;;5035588;28;20482;-77
2021/09/27 12:48:22;;;;;;;14.00;12.70;;;22.60;99.90;;;;;;5018192;28;20453;-77
2021/09/27 12:50:54;;;;;;;13.60;12.37;;;22.50;99.90;;;;;;5018074;28;20525;-77
2021/09/27 12:53:31;;;;;;;12.70;11.70;;;22.50;99.90;;;;;;5017988;28;20435;-77